This is the latest recevied weather packets stored in our database for station/object N1OTX. If no packets are shown the sender has not sent any weather packets the latest 10 day(s).
| Time | Temp. | Humidity | Pressure | Rain* | Wind** | Luminosity | Snow |
|---|---|---|---|---|---|---|---|
| 1777718729 | 8.33° C | 86% | 1011.7 hPa | 0 mm | - | 17 W/m² | - |
| 1777718429 | 8.33° C | 87% | 1011.6 hPa | 0 mm | - | 19 W/m² | - |
| 1777716930 | 7.78° C | 90% | 1011.2 hPa | 0 mm | - | 25 W/m² | - |
| 1777715749 | 8.33° C | 88% | 1011 hPa | 0 mm | - | 6 W/m² | - |
| 1777713030 | 7.78° C | 80% | 1011.4 hPa | 0 mm | - | 0 W/m² | - |
| 1777709150 | 8.33° C | 75% | 1011.2 hPa | 0 mm | - | 0 W/m² | - |
| 1777708230 | 7.78° C | 81% | 1010.8 hPa | 0 mm | - | 0 W/m² | - |
| 1777705830 | 7.22° C | 81% | 1011.6 hPa | 0 mm | - | 0 W/m² | - |
| 1777705550 | 6.67° C | 81% | 1011.8 hPa | 0 mm | - | 0 W/m² | - |
| 1777705230 | 6.67° C | 81% | 1011.8 hPa | 0 mm | - | 0 W/m² | - |
| 1777703170 | 5.56° C | 83% | 1011.3 hPa | 0 mm | - | 0 W/m² | - |
| 1777702529 | 6.11° C | 83% | 1011.3 hPa | 0 mm | - | 0 W/m² | - |
| 1777701030 | 6.11° C | 81% | 1011.3 hPa | 0 mm | - | 0 W/m² | - |
| 1777700130 | 6.11° C | 84% | 1011.3 hPa | 0 mm | - | 0 W/m² | - |
| 1777698029 | 6.67° C | 80% | 1011.4 hPa | 0 mm | - | 0 W/m² | - |
| 1777696230 | 6.67° C | 78% | 1011.8 hPa | 0 mm | - | 0 W/m² | - |
| 1777693230 | 7.22° C | 76% | 1011.6 hPa | 0 mm | - | 0 W/m² | - |
| 1777692330 | 7.22° C | 74% | 1011.4 hPa | 0 mm | - | 0 W/m² | - |
| 1777689631 | 6.67° C | 74% | 1011.4 hPa | 0 mm | - | 0 W/m² | - |
| 1777688430 | 7.22° C | 71% | 1011.4 hPa | 0 mm | - | 0 W/m² | - |
| 1777687229 | 7.22° C | 70% | 1011.5 hPa | 0 mm | - | 0 W/m² | - |
| 1777683630 | 8.89° C | 62% | 1011.1 hPa | 0 mm | - | 0 W/m² | - |
| 1777683330 | 8.89° C | 61% | 1011 hPa | 0 mm | - | 0 W/m² | - |
| 1777681831 | 10° C | 59% | 1010.7 hPa | 0 mm | - | 0 W/m² | - |
| 1777679730 | 11.67° C | 46% | 1010.1 hPa | 0 mm | - | 1 W/m² | - |
* Rain latest hour (hover to see other rain measurements)
** Current wind speed in m/s (hover to see current wind gust speed)